TimeEDT,TemperatureF,Dew PointF,Humidity,Sea Level PressureIn,VisibilityMPH,Wind Direction,Wind SpeedMPH,Gust SpeedMPH,PrecipitationIn,Events,Conditions,WindDirDegrees,DateUTC
12:15 AM,77.0,62.6,61,29.75,10.0,SW,4.6,-,N/A,,Clear,220,2013-06-29 04:15:00
12:35 AM,75.2,64.4,69,29.75,10.0,SSW,4.6,-,N/A,,Clear,210,2013-06-29 04:35:00
12:55 AM,75.2,64.4,69,29.76,10.0,Calm,Calm,-,N/A,,Clear,0,2013-06-29 04:55:00
1:15 AM,75.2,64.4,69,29.75,10.0,South,4.6,-,N/A,,Scattered Clouds,170,2013-06-29 05:15:00
1:35 AM,73.4,64.4,73,29.75,10.0,SSE,5.8,-,N/A,,Scattered Clouds,160,2013-06-29 05:35:00
1:55 AM,73.4,64.4,73,29.75,10.0,South,6.9,-,N/A,,Mostly Cloudy,170,2013-06-29 05:55:00
2:15 AM,73.4,64.4,73,29.74,10.0,South,6.9,-,N/A,,Scattered Clouds,190,2013-06-29 06:15:00
2:35 AM,73.4,64.4,73,29.74,10.0,South,6.9,-,N/A,,Scattered Clouds,190,2013-06-29 06:35:00
2:55 AM,73.4,64.4,73,29.73,10.0,SSW,5.8,-,N/A,,Mostly Cloudy,210,2013-06-29 06:55:00
3:15 AM,71.6,64.4,78,29.73,10.0,SSW,8.1,-,N/A,,Scattered Clouds,210,2013-06-29 07:15:00
3:35 AM,71.6,64.4,78,29.73,10.0,SSW,9.2,-,N/A,,Clear,210,2013-06-29 07:35:00
3:55 AM,71.6,66.2,83,29.73,10.0,SSW,9.2,-,N/A,,Scattered Clouds,200,2013-06-29 07:55:00
4:15 AM,71.6,69.8,94,29.73,10.0,SSW,10.4,-,N/A,,Clear,200,2013-06-29 08:15:00
4:35 AM,71.6,71.6,100,29.73,10.0,SW,11.5,-,N/A,,Scattered Clouds,220,2013-06-29 08:35:00
4:55 AM,71.6,71.6,100,29.74,10.0,SSW,13.8,18.4,N/A,,Mostly Cloudy,210,2013-06-29 08:55:00
5:15 AM,71.6,71.6,100,29.74,10.0,SW,9.2,-,N/A,Rain,Light Rain,220,2013-06-29 09:15:00
5:35 AM,71.6,71.6,100,29.74,10.0,SW,6.9,-,N/A,,Mostly Cloudy,220,2013-06-29 09:35:00
5:55 AM,71.6,71.6,100,29.74,10.0,SW,5.8,-,N/A,,Mostly Cloudy,220,2013-06-29 09:55:00
6:15 AM,71.6,71.6,100,29.74,10.0,SW,5.8,-,N/A,,Scattered Clouds,220,2013-06-29 10:15:00
6:35 AM,71.6,71.6,100,29.75,10.0,SW,6.9,-,N/A,,Scattered Clouds,230,2013-06-29 10:35:00
6:55 AM,71.6,71.6,100,29.75,10.0,SW,6.9,-,N/A,,Mostly Cloudy,230,2013-06-29 10:55:00
7:15 AM,71.6,71.6,100,29.75,10.0,SW,6.9,-,N/A,,Overcast,230,2013-06-29 11:15:00
7:35 AM,71.6,71.6,100,29.76,10.0,SSW,5.8,-,N/A,,Mostly Cloudy,210,2013-06-29 11:35:00
7:55 AM,71.6,71.6,100,29.75,10.0,SW,5.8,-,N/A,,Mostly Cloudy,230,2013-06-29 11:55:00
8:15 AM,73.4,73.4,100,29.75,10.0,WSW,5.8,-,N/A,,Scattered Clouds,240,2013-06-29 12:15:00
8:35 AM,73.4,73.4,100,29.76,10.0,WSW,8.1,-,N/A,,Scattered Clouds,240,2013-06-29 12:35:00
8:55 AM,73.4,73.4,100,29.76,10.0,WSW,10.4,-,N/A,,Overcast,250,2013-06-29 12:55:00
9:15 AM,73.4,73.4,100,29.76,10.0,WSW,10.4,-,N/A,,Overcast,250,2013-06-29 13:15:00
9:35 AM,75.2,71.6,89,29.76,10.0,West,9.2,-,N/A,,Overcast,260,2013-06-29 13:35:00
9:55 AM,77.0,69.8,78,29.76,10.0,WSW,9.2,17.3,N/A,,Mostly Cloudy,250,2013-06-29 13:55:00
10:15 AM,77.0,68.0,74,29.76,10.0,WSW,10.4,-,N/A,,Mostly Cloudy,240,2013-06-29 14:15:00
10:35 AM,78.8,68.0,69,29.76,10.0,WSW,6.9,-,N/A,,Mostly Cloudy,250,2013-06-29 14:35:00
10:55 AM,78.8,68.0,69,29.76,10.0,WSW,9.2,-,N/A,,Mostly Cloudy,250,2013-06-29 14:55:00
11:15 AM,80.6,68.0,65,29.76,10.0,WSW,8.1,-,N/A,,Scattered Clouds,250,2013-06-29 15:15:00
11:35 AM,80.6,68.0,65,29.77,10.0,WSW,10.4,-,N/A,,Mostly Cloudy,240,2013-06-29 15:35:00
11:55 AM,80.6,68.0,65,29.77,10.0,WSW,10.4,-,N/A,,Mostly Cloudy,250,2013-06-29 15:55:00
12:15 PM,82.4,68.0,62,29.77,10.0,WSW,9.2,-,N/A,,Scattered Clouds,250,2013-06-29 16:15:00
12:35 PM,82.4,66.2,58,29.77,10.0,WSW,11.5,-,N/A,,Scattered Clouds,240,2013-06-29 16:35:00
12:55 PM,84.2,68.0,58,29.76,10.0,WSW,9.2,-,N/A,,Clear,240,2013-06-29 16:55:00
1:15 PM,86.0,66.2,51,29.76,10.0,SW,9.2,-,N/A,,Clear,230,2013-06-29 17:15:00
1:35 PM,86.0,66.2,51,29.75,10.0,WSW,9.2,-,N/A,,Clear,240,2013-06-29 17:35:00
1:55 PM,86.0,68.0,55,29.75,10.0,SW,5.8,-,N/A,,Clear,220,2013-06-29 17:55:00
2:15 PM,84.2,68.0,58,29.75,10.0,SW,8.1,-,N/A,,Scattered Clouds,230,2013-06-29 18:15:00
2:35 PM,86.0,68.0,55,29.75,10.0,SW,11.5,-,N/A,,Scattered Clouds,220,2013-06-29 18:35:00
2:55 PM,84.2,68.0,58,29.74,10.0,South,10.4,-,N/A,,Scattered Clouds,190,2013-06-29 18:55:00
3:15 PM,84.2,68.0,58,29.74,10.0,SSW,11.5,-,N/A,,Scattered Clouds,200,2013-06-29 19:15:00
3:35 PM,82.4,68.0,62,29.74,10.0,SSW,10.4,-,N/A,,Clear,210,2013-06-29 19:35:00
3:55 PM,84.2,69.8,62,29.74,10.0,SW,12.7,-,N/A,,Clear,220,2013-06-29 19:55:00
4:15 PM,82.4,68.0,62,29.74,10.0,South,12.7,20.7,N/A,,Scattered Clouds,180,2013-06-29 20:15:00
4:35 PM,80.6,69.8,70,29.75,10.0,South,9.2,-,N/A,,Scattered Clouds,190,2013-06-29 20:35:00
4:55 PM,80.6,68.0,65,29.75,7.0,SSW,12.7,-,N/A,,Scattered Clouds,200,2013-06-29 20:55:00
5:15 PM,80.6,69.8,70,29.74,7.0,SSW,8.1,-,N/A,,Scattered Clouds,200,2013-06-29 21:15:00
5:35 PM,80.6,69.8,70,29.74,10.0,SSW,6.9,-,N/A,,Scattered Clouds,200,2013-06-29 21:35:00
5:55 PM,80.6,69.8,70,29.74,10.0,SSW,9.2,-,N/A,,Scattered Clouds,210,2013-06-29 21:55:00
6:15 PM,82.4,69.8,66,29.73,10.0,South,8.1,-,N/A,,Scattered Clouds,190,2013-06-29 22:15:00
6:35 PM,80.6,69.8,70,29.73,10.0,SSW,9.2,-,N/A,,Scattered Clouds,210,2013-06-29 22:35:00
6:55 PM,80.6,69.8,70,29.74,10.0,SSW,4.6,-,N/A,,Mostly Cloudy,210,2013-06-29 22:55:00
7:15 PM,80.6,69.8,70,29.75,10.0,SSW,5.8,-,N/A,,Overcast,200,2013-06-29 23:15:00
7:35 PM,80.6,69.8,70,29.75,10.0,South,4.6,-,N/A,,Mostly Cloudy,170,2013-06-29 23:35:00
7:55 PM,80.6,69.8,70,29.75,10.0,SSW,5.8,-,N/A,,Mostly Cloudy,200,2013-06-29 23:55:00
8:15 PM,73.4,69.8,88,29.76,5.0,WNW,10.4,-,N/A,Rain,Heavy Rain,300,2013-06-30 00:15:00
8:35 PM,71.6,71.6,100,29.75,4.0,North,3.5,-,N/A,Rain,Light Rain,10,2013-06-30 00:35:00
8:55 PM,71.6,71.6,100,29.76,10.0,Calm,Calm,-,N/A,,Overcast,0,2013-06-30 00:55:00
9:15 PM,73.4,73.4,100,29.77,10.0,Calm,Calm,-,N/A,,Scattered Clouds,0,2013-06-30 01:15:00
9:35 PM,73.4,73.4,100,29.77,10.0,SSE,3.5,-,N/A,,Scattered Clouds,160,2013-06-30 01:35:00
9:55 PM,73.4,73.4,100,29.78,10.0,SSE,5.8,-,N/A,,Overcast,160,2013-06-30 01:55:00
10:15 PM,73.4,73.4,100,29.78,10.0,SSE,5.8,-,N/A,,Overcast,160,2013-06-30 02:15:00
10:35 PM,73.4,73.4,100,29.78,10.0,SSE,5.8,-,N/A,,Scattered Clouds,160,2013-06-30 02:35:00
10:55 PM,73.4,73.4,100,29.78,10.0,South,5.8,-,N/A,,Clear,170,2013-06-30 02:55:00
11:15 PM,73.4,73.4,100,29.80,10.0,WSW,6.9,-,N/A,,Scattered Clouds,240,2013-06-30 03:15:00
11:35 PM,73.4,73.4,100,29.79,10.0,SSW,3.5,-,N/A,,Scattered Clouds,210,2013-06-30 03:35:00
11:55 PM,73.4,73.4,100,29.79,10.0,South,5.8,-,N/A,,Scattered Clouds,180,2013-06-30 03:55:00